AirNav   Duncan Aviation - Near you to keep you 
flying
 
 1089 users online  

H70 Stratford Field Airport
Stratford, Texas, USA

GOING TO STRATFORD?


FAA INFORMATION EFFECTIVE 15 JULY 2021

Location

FAA Identifier: H70
Lat/Long: 36-20-44.3000N 102-02-57.3000W
36-20.738333N 102-02.955000W
36.3456389,-102.0492500
(estimated)
Elevation: 3668.2 ft. / 1118.1 m (surveyed)
Variation: 09E (1985)
From city: 1 mile NE of STRATFORD, TX
Time zone: UTC -5 (UTC -6 during Standard Time)
Zip code: 79084

Airport Operations

Airport use: Open to the public
Activation date: 12/1946
Control tower: no
ARTCC: ALBUQUERQUE CENTER
FSS: FORT WORTH FLIGHT SERVICE STATION
NOTAMs facility: FTW (NOTAM-D service available)
Attendance: UNATNDD
Wind indicator: lighted
Segmented circle: no
Lights: ACTVT LIRL RY 04/22 5 X- CTAF.

Airport Communications

CTAF: 122.9
  • COMMUNICATIONS PRVDD BY FORT WORTH RADIO ON FREQS 122.2 & 255.4 (DALHART RCO).

Nearby radio navigation aids

VOR radial/distance  VOR name  Freq  Var
DHTr046/28.4DALHART VORTAC112.0012E

 
NDB name  Hdg/Dist  Freq  Var  ID
GUYMON222/34.027509EGUY --. ..- -.--

Airport Services

Fuel available: EMERGENCY FUEL 100LL ONLY.
Parking: hangars and tiedowns
Airframe service: NONE
Powerplant service: NONE
Bottled oxygen: NONE
Bulk oxygen: NONE

Runway Information

Runway 4/22

Dimensions: 3023 x 32 ft. / 921 x 10 m
Surface: asphalt, in good condition
Weight bearing capacity: 
Single wheel: 9.0
Runway edge lights: low intensity
RY 04/22 NSTD LIRL; LGTS LCTD 33 FT FM EDGE OF PAVEMENT.
Runway edge markings: RY 04/22 NOT MARKED.
RUNWAY 4  RUNWAY 22
Latitude: 36-20.592200N36-20.885550N
Longitude: 102-03.204267W102-02.706533W
Elevation: 3668.2 ft.3652.3 ft.
Traffic pattern: leftleft
Runway heading: 045 magnetic, 054 true225 magnetic, 234 true
Touchdown point: yes, no lightsyes, no lights
Obstructions: 15 ft. road, 200 ft. from runway, 50 ft. right of centerline
+20 FT HGR AT THR 80 FT RIGHT CNTRLN.
15 ft. road, 200 ft. from runway, 35 ft. right of centerline
15 FT ROAD 166 FT FM THLD, O BOTH SIDES

Airport Ownership and Management from official FAA records

Ownership: Privately-owned
Owner: SKYRANCHERS INC.
PO BOX 223
STRATFORD, TX 79084
Phone (806) 753-7866
Manager: ROGER WELLS
BOX 223
STRATFORD, TX 79084
Phone (806) 753-7866

Airport Operational Statistics

Aircraft based on the field: 6
Single engine airplanes: 6
    
Aircraft operations: avg 22/month *
62% local general aviation
38% transient general aviation
* for 12-month period ending 20 September 2017

Additional Remarks

SEWAGE TREATMENT PLANT LCTD SOUTH OF RY.
FOR CD CTC ALBUQUERQUE ARTCC AT 505-856-4861.

Instrument Procedures

NOTE: All procedures below are presented as PDF files. If you need a reader for these files, you should download the free Adobe Reader.

NOT FOR NAVIGATION. Please procure official charts for flight.
FAA instrument procedures published for use from 15 July 2021 at 0901Z to 12 August 2021 at 0900z.

NOTE: Special Take-Off Minimums/Departure Procedures apply   download (195KB)

Other nearby airports with instrument procedures:

KDUX - Moore County Airport (29 nm S)
E19 - Gruver Municipal Airport (31 nm E)
KDHT - Dalhart Municipal Airport (31 nm SW)
KGUY - Guymon Municipal Airport (33 nm NE)
17K - Boise City Airport (34 nm NW)
 
Loc | Ops | Rwys | IFR | FBO | Links
Com | Nav | Svcs | Stats | Notes

AirBoss

 
Area around H70 (Stratford Field Airport)
 
Road maps at: MapQuest Bing Google
 
Aerial photo
WARNING: Photo may not be current or correct
Aerial photo of H70 (Stratford Field Airport)
Photo by R. Johnson

Do you have a better or more recent aerial photo of Stratford Field Airport that you would like to share? If so, please send us your photo.

 
Sectional chart

 
Airport distance calculator
Flying to Stratford Field Airport? Find the distance to fly.

From to H70

Sunrise and sunset
Times for 01-Aug-2021
 Local
(UTC-5)
 Zulu
(UTC)
Morning civil twilight06:2711:27
Sunrise06:5611:56
Sunset20:5301:53
Evening civil twilight21:2202:22

Current date and time
Zulu (UTC)  02-Aug-2021 00:08:09
Local (UTC-5)  01-Aug-2021 19:08:09
 
METAR
KDUX 
29nm S 
012355Z AUTO 04010KT 10SM BKN060 23/12 A3028 RMK AO2 T02260119 10236 20168
KDHT 
31nm SW 
012353Z AUTO 05010KT 6SM HZ OVC065 23/13 A3031 RMK AO2 SLP213 T02280128 10233 20194 56010
KGUY 
33nm NE 
012353Z AUTO 03007KT 6SM HZ OVC075 24/16 A3023 RMK AO2 SLP198 60000 T02440161 10261 20194 56016
KEHA 
40nm N 
012350Z AUTO 07003KT 7SM HZ OVC085 24/14 A3030 RMK AO2 T02400145 10266 20211 403140173
KBGD 
50nm SE 
012351Z AUTO 03011KT 7SM BKN070 25/17 A3024 RMK AO2 SLP199 60012 T02500172 10256 20200 58013
TAF
KDHT 
31nm SW 
011920Z 0119/0218 02013KT 6SM BR OVC020 FM012200 04013KT P6SM BKN030
KGUY 
33nm NE 
011720Z 0118/0218 05011KT P6SM OVC018 FM012000 04008KT P6SM BKN040
NOTAMs
Click for the latest NOTAMs
NOTAMs are issued by the DoD/FAA and will open in a separate window not controlled by AirNav.

 

 
 

Would you like to see your business listed on this page?

 If your business provides an interesting product or service to pilots, flight crews, aircraft, or users of the Stratford Field Airport, you should consider listing it here.  To start the listing process, click on the button below
 
Add a business
 

Other Pages about Stratford Field Airport

Update a link
 
Copyright © AirNav, LLC. All rights reserved. Privacy Policy  Contact